sensor_id;sensor_type;location;lat;lon;timestamp;pressure;altitude;pressure_sealevel;temperature;humidity
63691;BME280;49837;57.280;27.070;2023-07-20T00:00:49;99080.05;;;12.59;81.84
63691;BME280;49837;57.280;27.070;2023-07-20T00:01:49;99075.91;;;12.6;81.25
63691;BME280;49837;57.280;27.070;2023-07-20T00:02:50;99082.34;;;12.6;81.25
63691;BME280;49837;57.280;27.070;2023-07-20T00:03:50;99083.72;;;12.61;81.37
63691;BME280;49837;57.280;27.070;2023-07-20T00:04:51;99079.31;;;12.62;80.97
63691;BME280;49837;57.280;27.070;2023-07-20T00:05:51;99077.98;;;12.65;81.77
63691;BME280;49837;57.280;27.070;2023-07-20T00:06:52;99076.64;;;12.67;81.58
63691;BME280;49837;57.280;27.070;2023-07-20T00:07:52;99077.55;;;12.65;80.9
63691;BME280;49837;57.280;27.070;2023-07-20T00:08:56;99077.6;;;12.64;81.45
63691;BME280;49837;57.280;27.070;2023-07-20T00:09:53;99074.02;;;12.66;81.77
63691;BME280;49837;57.280;27.070;2023-07-20T00:10:54;99073.98;;;12.63;82.34
63691;BME280;49837;57.280;27.070;2023-07-20T00:11:54;99071.9;;;12.64;80.67
63691;BME280;49837;57.280;27.070;2023-07-20T00:12:55;99073.62;;;12.65;80.77
63691;BME280;49837;57.280;27.070;2023-07-20T00:13:55;99071.72;;;12.66;80.98
63691;BME280;49837;57.280;27.070;2023-07-20T00:14:56;99075.14;;;12.66;81.16
63691;BME280;49837;57.280;27.070;2023-07-20T00:15:56;99069.95;;;12.65;81.47
63691;BME280;49837;57.280;27.070;2023-07-20T00:16:56;99073.84;;;12.67;81.06
63691;BME280;49837;57.280;27.070;2023-07-20T00:17:57;99071.63;;;12.7;81.28
63691;BME280;49837;57.280;27.070;2023-07-20T00:18:57;99071.91;;;12.7;81.0
63691;BME280;49837;57.280;27.070;2023-07-20T00:19:58;99076.02;;;12.69;81.11
63691;BME280;49837;57.280;27.070;2023-07-20T00:20:58;99074.41;;;12.68;81.12
63691;BME280;49837;57.280;27.070;2023-07-20T00:21:59;99074.01;;;12.67;80.85
63691;BME280;49837;57.280;27.070;2023-07-20T00:22:59;99075.64;;;12.68;81.43
63691;BME280;49837;57.280;27.070;2023-07-20T00:23:59;99073.86;;;12.71;81.7
63691;BME280;49837;57.280;27.070;2023-07-20T00:25:00;99076.7;;;12.71;80.82
63691;BME280;49837;57.280;27.070;2023-07-20T00:26:00;99079.98;;;12.73;81.13
63691;BME280;49837;57.280;27.070;2023-07-20T00:27:01;99076.59;;;12.72;81.03
63691;BME280;49837;57.280;27.070;2023-07-20T00:28:01;99075.25;;;12.7;81.06
63691;BME280;49837;57.280;27.070;2023-07-20T00:29:02;99075.03;;;12.69;80.88
63691;BME280;49837;57.280;27.070;2023-07-20T00:30:03;99075.75;;;12.7;81.37
63691;BME280;49837;57.280;27.070;2023-07-20T00:31:03;99076.59;;;12.69;82.06
63691;BME280;49837;57.280;27.070;2023-07-20T00:32:04;99072.0;;;12.67;81.61
63691;BME280;49837;57.280;27.070;2023-07-20T00:33:03;99073.28;;;12.65;80.76
63691;BME280;49837;57.280;27.070;2023-07-20T00:34:04;99072.06;;;12.64;81.43
63691;BME280;49837;57.280;27.070;2023-07-20T00:35:05;99070.72;;;12.66;82.22
63691;BME280;49837;57.280;27.070;2023-07-20T00:36:05;99070.47;;;12.63;81.75
63691;BME280;49837;57.280;27.070;2023-07-20T00:37:05;99067.45;;;12.62;82.15
63691;BME280;49837;57.280;27.070;2023-07-20T00:38:06;99064.26;;;12.55;81.92
63691;BME280;49837;57.280;27.070;2023-07-20T00:39:06;99068.34;;;12.57;80.83
63691;BME280;49837;57.280;27.070;2023-07-20T00:40:07;99065.48;;;12.59;81.42
63691;BME280;49837;57.280;27.070;2023-07-20T00:41:08;99065.27;;;12.57;80.77
63691;BME280;49837;57.280;27.070;2023-07-20T00:42:08;99065.44;;;12.6;81.04
63691;BME280;49837;57.280;27.070;2023-07-20T00:43:09;99069.68;;;12.61;81.28
63691;BME280;49837;57.280;27.070;2023-07-20T00:44:09;99070.28;;;12.56;81.11
63691;BME280;49837;57.280;27.070;2023-07-20T00:45:10;99066.88;;;12.57;81.5
63691;BME280;49837;57.280;27.070;2023-07-20T00:46:10;99065.66;;;12.56;81.28
63691;BME280;49837;57.280;27.070;2023-07-20T00:47:10;99066.27;;;12.56;81.7
63691;BME280;49837;57.280;27.070;2023-07-20T00:48:11;99065.05;;;12.52;81.39
63691;BME280;49837;57.280;27.070;2023-07-20T00:49:11;99065.05;;;12.52;81.26
63691;BME280;49837;57.280;27.070;2023-07-20T00:50:12;99061.38;;;12.5;81.52
63691;BME280;49837;57.280;27.070;2023-07-20T00:51:12;99062.2;;;12.48;81.69
63691;BME280;49837;57.280;27.070;2023-07-20T00:52:13;99062.04;;;12.49;81.9
63691;BME280;49837;57.280;27.070;2023-07-20T00:53:13;99060.7;;;12.51;81.97
63691;BME280;49837;57.280;27.070;2023-07-20T00:54:14;99062.81;;;12.52;82.13
63691;BME280;49837;57.280;27.070;2023-07-20T00:55:14;99060.41;;;12.42;81.96
63691;BME280;49837;57.280;27.070;2023-07-20T00:56:15;99061.8;;;12.4;81.67
63691;BME280;49837;57.280;27.070;2023-07-20T00:57:15;99061.26;;;12.4;81.62
63691;BME280;49837;57.280;27.070;2023-07-20T00:58:15;99063.47;;;12.4;81.25
63691;BME280;49837;57.280;27.070;2023-07-20T00:59:16;99064.59;;;12.4;81.74
63691;BME280;49837;57.280;27.070;2023-07-20T01:00:16;99066.21;;;12.37;82.01
63691;BME280;49837;57.280;27.070;2023-07-20T01:01:16;99069.56;;;12.37;81.95
63691;BME280;49837;57.280;27.070;2023-07-20T01:02:17;99067.33;;;12.37;81.44
63691;BME280;49837;57.280;27.070;2023-07-20T01:03:17;99061.75;;;12.35;81.13
63691;BME280;49837;57.280;27.070;2023-07-20T01:04:18;99068.16;;;12.35;81.12
63691;BME280;49837;57.280;27.070;2023-07-20T01:05:18;99068.39;;;12.32;81.33
63691;BME280;49837;57.280;27.070;2023-07-20T01:06:29;99065.87;;;12.3;81.19
63691;BME280;49837;57.280;27.070;2023-07-20T01:08:43;99068.44;;;12.27;81.41
63691;BME280;49837;57.280;27.070;2023-07-20T01:12:45;99071.38;;;12.26;81.64
63691;BME280;49837;57.280;27.070;2023-07-20T01:13:44;99068.6;;;12.27;81.32
63691;BME280;49837;57.280;27.070;2023-07-20T01:14:44;99067.94;;;12.24;81.48
63691;BME280;49837;57.280;27.070;2023-07-20T01:15:49;99067.27;;;12.24;81.37
63691;BME280;49837;57.280;27.070;2023-07-20T01:16:47;99065.84;;;12.21;81.28
63691;BME280;49837;57.280;27.070;2023-07-20T01:17:47;99065.7;;;12.18;81.39
63691;BME280;49837;57.280;27.070;2023-07-20T01:18:48;99068.65;;;12.21;81.46
63691;BME280;49837;57.280;27.070;2023-07-20T01:19:48;99068.38;;;12.25;81.29
63691;BME280;49837;57.280;27.070;2023-07-20T01:20:49;99067.42;;;12.19;81.57
63691;BME280;49837;57.280;27.070;2023-07-20T01:32:13;99075.52;;;12.07;81.0
63691;BME280;49837;57.280;27.070;2023-07-20T01:33:15;99075.62;;;12.02;80.9
63691;BME280;49837;57.280;27.070;2023-07-20T01:34:16;99077.37;;;12.03;81.35
63691;BME280;49837;57.280;27.070;2023-07-20T01:35:16;99074.02;;;12.05;81.58
63691;BME280;49837;57.280;27.070;2023-07-20T01:36:18;99079.42;;;12.02;81.71
63691;BME280;49837;57.280;27.070;2023-07-20T01:37:17;99077.03;;;11.98;82.04
63691;BME280;49837;57.280;27.070;2023-07-20T01:38:17;99078.38;;;11.95;81.44
63691;BME280;49837;57.280;27.070;2023-07-20T01:39:16;99080.31;;;11.96;81.57
63691;BME280;49837;57.280;27.070;2023-07-20T01:40:18;99078.81;;;11.96;81.57
63691;BME280;49837;57.280;27.070;2023-07-20T01:41:18;99078.1;;;11.95;81.71
63691;BME280;49837;57.280;27.070;2023-07-20T01:42:18;99076.31;;;11.94;82.21
63691;BME280;49837;57.280;27.070;2023-07-20T01:43:18;99073.2;;;11.96;81.93
63691;BME280;49837;57.280;27.070;2023-07-20T01:44:18;99071.01;;;11.95;81.89
63691;BME280;49837;57.280;27.070;2023-07-20T01:45:19;99071.34;;;11.89;82.36
63691;BME280;49837;57.280;27.070;2023-07-20T01:46:19;99073.39;;;11.86;82.32
63691;BME280;49837;57.280;27.070;2023-07-20T01:47:20;99072.88;;;11.84;82.31
63691;BME280;49837;57.280;27.070;2023-07-20T01:48:20;99071.55;;;11.85;82.58
63691;BME280;49837;57.280;27.070;2023-07-20T01:49:21;99073.84;;;11.86;82.18
63691;BME280;49837;57.280;27.070;2023-07-20T01:50:21;99073.66;;;11.85;82.44
63691;BME280;49837;57.280;27.070;2023-07-20T01:51:22;99072.78;;;11.87;82.58
63691;BME280;49837;57.280;27.070;2023-07-20T01:52:23;99075.05;;;11.83;81.94
63691;BME280;49837;57.280;27.070;2023-07-20T01:53:23;99071.65;;;11.85;82.27
63691;BME280;49837;57.280;27.070;2023-07-20T01:54:23;99068.36;;;11.84;81.76
63691;BME280;49837;57.280;27.070;2023-07-20T01:55:24;99076.16;;;11.83;82.32
63691;BME280;49837;57.280;27.070;2023-07-20T01:56:24;99072.15;;;11.83;82.37
63691;BME280;49837;57.280;27.070;2023-07-20T01:57:25;99077.77;;;11.83;82.64
63691;BME280;49837;57.280;27.070;2023-07-20T01:58:25;99077.41;;;11.75;82.34
63691;BME280;49837;57.280;27.070;2023-07-20T01:59:26;99076.25;;;11.77;82.44
63691;BME280;49837;57.280;27.070;2023-07-20T02:00:26;99079.48;;;11.75;81.93
63691;BME280;49837;57.280;27.070;2023-07-20T02:01:26;99082.03;;;11.73;82.18
63691;BME280;49837;57.280;27.070;2023-07-20T02:02:27;99082.14;;;11.71;82.65
63691;BME280;49837;57.280;27.070;2023-07-20T02:03:27;99079.26;;;11.75;82.46
63691;BME280;49837;57.280;27.070;2023-07-20T02:04:28;99083.09;;;11.75;82.7
63691;BME280;49837;57.280;27.070;2023-07-20T02:05:28;99084.06;;;11.77;82.96
63691;BME280;49837;57.280;27.070;2023-07-20T02:06:29;99082.75;;;11.75;83.11
63691;BME280;49837;57.280;27.070;2023-07-20T02:07:29;99085.75;;;11.72;83.12
63691;BME280;49837;57.280;27.070;2023-07-20T02:08:30;99081.69;;;11.73;83.05
63691;BME280;49837;57.280;27.070;2023-07-20T02:12:34;99077.62;;;11.67;83.23
63691;BME280;49837;57.280;27.070;2023-07-20T02:13:35;99076.55;;;11.67;83.41
63691;BME280;49837;57.280;27.070;2023-07-20T02:14:35;99079.11;;;11.7;83.25
63691;BME280;49837;57.280;27.070;2023-07-20T02:15:35;99076.23;;;11.7;83.28
63691;BME280;49837;57.280;27.070;2023-07-20T02:16:36;99077.27;;;11.68;83.29
63691;BME280;49837;57.280;27.070;2023-07-20T02:17:36;99076.21;;;11.68;83.57
63691;BME280;49837;57.280;27.070;2023-07-20T02:18:37;99078.38;;;11.64;83.48
63691;BME280;49837;57.280;27.070;2023-07-20T02:19:37;99075.41;;;11.59;83.52
63691;BME280;49837;57.280;27.070;2023-07-20T02:20:38;99077.12;;;11.58;83.42
63691;BME280;49837;57.280;27.070;2023-07-20T02:21:38;99073.35;;;11.58;83.69
63691;BME280;49837;57.280;27.070;2023-07-20T02:22:39;99075.02;;;11.58;83.73
63691;BME280;49837;57.280;27.070;2023-07-20T02:23:39;99076.94;;;11.53;83.63
63691;BME280;49837;57.280;27.070;2023-07-20T02:24:39;99073.77;;;11.51;83.6
63691;BME280;49837;57.280;27.070;2023-07-20T02:25:40;99074.31;;;11.49;83.97
63691;BME280;49837;57.280;27.070;2023-07-20T02:26:40;99075.7;;;11.46;83.85
63691;BME280;49837;57.280;27.070;2023-07-20T02:27:41;99076.3;;;11.46;84.07
63691;BME280;49837;57.280;27.070;2023-07-20T02:28:41;99075.66;;;11.49;84.11
63691;BME280;49837;57.280;27.070;2023-07-20T02:29:42;99075.54;;;11.49;84.01
63691;BME280;49837;57.280;27.070;2023-07-20T02:30:42;99073.66;;;11.52;83.81
63691;BME280;49837;57.280;27.070;2023-07-20T02:31:42;99075.38;;;11.51;84.07
63691;BME280;49837;57.280;27.070;2023-07-20T02:32:43;99078.28;;;11.43;84.13
63691;BME280;49837;57.280;27.070;2023-07-20T02:33:43;99075.0;;;11.44;84.07
63691;BME280;49837;57.280;27.070;2023-07-20T02:34:44;99076.8;;;11.44;84.22
63691;BME280;49837;57.280;27.070;2023-07-20T02:35:44;99077.72;;;11.41;84.32
63691;BME280;49837;57.280;27.070;2023-07-20T02:36:44;99077.0;;;11.41;84.39
63691;BME280;49837;57.280;27.070;2023-07-20T02:37:45;99079.45;;;11.4;84.44
63691;BME280;49837;57.280;27.070;2023-07-20T02:38:45;99077.23;;;11.41;84.04
63691;BME280;49837;57.280;27.070;2023-07-20T02:39:46;99077.52;;;11.43;84.03
63691;BME280;49837;57.280;27.070;2023-07-20T02:40:46;99081.41;;;11.44;83.61
63691;BME280;49837;57.280;27.070;2023-07-20T02:41:47;99077.34;;;11.45;83.51
63691;BME280;49837;57.280;27.070;2023-07-20T02:42:47;99078.78;;;11.43;83.66
63691;BME280;49837;57.280;27.070;2023-07-20T02:43:47;99077.97;;;11.44;83.78
63691;BME280;49837;57.280;27.070;2023-07-20T02:44:48;99083.02;;;11.44;83.74
63691;BME280;49837;57.280;27.070;2023-07-20T02:45:50;99081.69;;;11.44;83.51
63691;BME280;49837;57.280;27.070;2023-07-20T02:46:49;99079.82;;;11.39;83.84
63691;BME280;49837;57.280;27.070;2023-07-20T02:47:49;99081.23;;;11.39;83.89
63691;BME280;49837;57.280;27.070;2023-07-20T02:48:50;99080.73;;;11.39;84.09
63691;BME280;49837;57.280;27.070;2023-07-20T02:49:50;99080.77;;;11.37;83.88
63691;BME280;49837;57.280;27.070;2023-07-20T02:50:50;99082.2;;;11.35;84.24
63691;BME280;49837;57.280;27.070;2023-07-20T02:51:51;99081.7;;;11.35;84.38
63691;BME280;49837;57.280;27.070;2023-07-20T02:52:51;99083.25;;;11.3;84.25
63691;BME280;49837;57.280;27.070;2023-07-20T02:53:52;99082.55;;;11.26;84.71
63691;BME280;49837;57.280;27.070;2023-07-20T02:54:52;99089.35;;;11.2;84.66
63691;BME280;49837;57.280;27.070;2023-07-20T02:55:52;99089.56;;;11.18;84.85
63691;BME280;49837;57.280;27.070;2023-07-20T02:56:53;99093.45;;;11.16;84.77
63691;BME280;49837;57.280;27.070;2023-07-20T02:57:53;99089.35;;;11.2;85.09
63691;BME280;49837;57.280;27.070;2023-07-20T02:58:54;99092.58;;;11.21;85.18
63691;BME280;49837;57.280;27.070;2023-07-20T02:59:54;99091.77;;;11.22;85.2
63691;BME280;49837;57.280;27.070;2023-07-20T03:00:55;99092.2;;;11.22;85.1
63691;BME280;49837;57.280;27.070;2023-07-20T03:01:55;99093.2;;;11.2;85.17
63691;BME280;49837;57.280;27.070;2023-07-20T03:02:56;99093.86;;;11.19;85.5
63691;BME280;49837;57.280;27.070;2023-07-20T03:03:56;99091.48;;;11.21;85.19
63691;BME280;49837;57.280;27.070;2023-07-20T03:04:56;99087.23;;;11.16;85.15
63691;BME280;49837;57.280;27.070;2023-07-20T03:05:57;99092.15;;;11.15;85.26
63691;BME280;49837;57.280;27.070;2023-07-20T03:06:57;99092.26;;;11.14;85.56
63691;BME280;49837;57.280;27.070;2023-07-20T03:07:58;99090.3;;;11.11;85.78
63691;BME280;49837;57.280;27.070;2023-07-20T03:08:58;99091.66;;;11.07;85.88
63691;BME280;49837;57.280;27.070;2023-07-20T03:09:58;99091.14;;;11.03;86.21
63691;BME280;49837;57.280;27.070;2023-07-20T03:10:59;99091.34;;;11.02;86.26
63691;BME280;49837;57.280;27.070;2023-07-20T03:11:59;99089.95;;;11.06;86.16
63691;BME280;49837;57.280;27.070;2023-07-20T03:13:00;99093.62;;;11.08;86.03
63691;BME280;49837;57.280;27.070;2023-07-20T03:14:00;99089.48;;;11.06;86.12
63691;BME280;49837;57.280;27.070;2023-07-20T03:15:02;99091.71;;;11.06;85.92
63691;BME280;49837;57.280;27.070;2023-07-20T03:16:01;99090.87;;;11.11;85.92
63691;BME280;49837;57.280;27.070;2023-07-20T03:17:02;99089.8;;;11.03;86.24
63691;BME280;49837;57.280;27.070;2023-07-20T03:18:02;99091.58;;;11.09;86.16
63691;BME280;49837;57.280;27.070;2023-07-20T03:19:03;99089.74;;;11.13;86.18
63691;BME280;49837;57.280;27.070;2023-07-20T03:20:04;99087.66;;;11.06;85.95
63691;BME280;49837;57.280;27.070;2023-07-20T03:21:03;99085.34;;;11.1;85.64
63691;BME280;49837;57.280;27.070;2023-07-20T03:22:04;99082.83;;;11.09;85.67
63691;BME280;49837;57.280;27.070;2023-07-20T03:23:04;99082.84;;;11.19;85.54
63691;BME280;49837;57.280;27.070;2023-07-20T03:24:05;99081.02;;;11.22;85.52
63691;BME280;49837;57.280;27.070;2023-07-20T03:25:05;99082.48;;;11.26;85.46
63691;BME280;49837;57.280;27.070;2023-07-20T03:26:06;99079.75;;;11.26;85.28
63691;BME280;49837;57.280;27.070;2023-07-20T03:27:06;99082.5;;;11.29;85.45
63691;BME280;49837;57.280;27.070;2023-07-20T03:28:06;99080.34;;;11.28;85.72
63691;BME280;49837;57.280;27.070;2023-07-20T03:29:07;99081.53;;;11.31;85.5
63691;BME280;49837;57.280;27.070;2023-07-20T03:30:08;99081.44;;;11.38;85.3
63691;BME280;49837;57.280;27.070;2023-07-20T03:31:08;99082.58;;;11.42;84.97
63691;BME280;49837;57.280;27.070;2023-07-20T03:32:08;99078.95;;;11.43;84.61
63691;BME280;49837;57.280;27.070;2023-07-20T03:33:08;99083.38;;;11.61;84.3
63691;BME280;49837;57.280;27.070;2023-07-20T03:34:09;99082.41;;;11.7;84.04
63691;BME280;49837;57.280;27.070;2023-07-20T03:35:09;99081.19;;;11.89;83.69
63691;BME280;49837;57.280;27.070;2023-07-20T03:36:10;99079.2;;;11.95;82.93
63691;BME280;49837;57.280;27.070;2023-07-20T03:37:10;99082.22;;;12.11;82.43
63691;BME280;49837;57.280;27.070;2023-07-20T03:38:11;99080.66;;;12.11;81.87
63691;BME280;49837;57.280;27.070;2023-07-20T03:39:11;99081.05;;;12.05;81.94
63691;BME280;49837;57.280;27.070;2023-07-20T03:40:12;99082.3;;;11.9;81.85
63691;BME280;49837;57.280;27.070;2023-07-20T03:41:12;99081.3;;;11.87;82.14
63691;BME280;49837;57.280;27.070;2023-07-20T03:42:12;99084.8;;;11.85;82.47
63691;BME280;49837;57.280;27.070;2023-07-20T03:43:13;99079.84;;;11.81;82.44
63691;BME280;49837;57.280;27.070;2023-07-20T03:44:13;99079.16;;;11.78;82.74
63691;BME280;49837;57.280;27.070;2023-07-20T03:45:13;99079.03;;;11.76;83.02
63691;BME280;49837;57.280;27.070;2023-07-20T03:46:14;99078.55;;;11.79;83.01
63691;BME280;49837;57.280;27.070;2023-07-20T03:47:14;99076.39;;;11.88;82.72
63691;BME280;49837;57.280;27.070;2023-07-20T03:48:19;99078.38;;;12.03;82.46
63691;BME280;49837;57.280;27.070;2023-07-20T03:49:17;99075.3;;;12.34;82.04
63691;BME280;49837;57.280;27.070;2023-07-20T03:50:18;99074.14;;;12.39;80.81
63691;BME280;49837;57.280;27.070;2023-07-20T03:51:18;99079.66;;;12.77;80.07
63691;BME280;49837;57.280;27.070;2023-07-20T03:52:19;99079.99;;;12.77;79.08
63691;BME280;49837;57.280;27.070;2023-07-20T03:53:19;99079.48;;;12.63;79.89
63691;BME280;49837;57.280;27.070;2023-07-20T03:54:20;99082.93;;;12.34;80.1
63691;BME280;49837;57.280;27.070;2023-07-20T03:55:20;99078.3;;;12.32;80.3
63691;BME280;49837;57.280;27.070;2023-07-20T03:56:21;99083.19;;;12.26;80.76
63691;BME280;49837;57.280;27.070;2023-07-20T03:57:21;99079.31;;;12.34;81.04
63691;BME280;49837;57.280;27.070;2023-07-20T03:58:21;99085.32;;;12.27;80.91
63691;BME280;49837;57.280;27.070;2023-07-20T03:59:22;99085.44;;;12.29;81.33
63691;BME280;49837;57.280;27.070;2023-07-20T04:00:22;99084.54;;;12.31;81.47
63691;BME280;49837;57.280;27.070;2023-07-20T04:01:23;99089.16;;;12.22;81.42
63691;BME280;49837;57.280;27.070;2023-07-20T04:02:23;99093.16;;;12.1;81.76
63691;BME280;49837;57.280;27.070;2023-07-20T04:03:24;99088.36;;;12.14;81.65
63691;BME280;49837;57.280;27.070;2023-07-20T04:04:24;99090.06;;;12.1;81.61
63691;BME280;49837;57.280;27.070;2023-07-20T04:05:24;99089.48;;;12.16;81.72
63691;BME280;49837;57.280;27.070;2023-07-20T04:06:25;99094.77;;;12.19;81.8
63691;BME280;49837;57.280;27.070;2023-07-20T04:07:25;99092.06;;;12.23;81.94
63691;BME280;49837;57.280;27.070;2023-07-20T04:08:26;99085.7;;;12.31;81.66
63691;BME280;49837;57.280;27.070;2023-07-20T04:09:28;99086.05;;;12.38;81.58
63691;BME280;49837;57.280;27.070;2023-07-20T04:10:27;99086.78;;;12.43;81.43
63691;BME280;49837;57.280;27.070;2023-07-20T04:11:28;99085.95;;;12.41;81.41
63691;BME280;49837;57.280;27.070;2023-07-20T04:12:28;99085.32;;;12.35;81.55
63691;BME280;49837;57.280;27.070;2023-07-20T04:13:29;99086.95;;;12.41;81.36
63691;BME280;49837;57.280;27.070;2023-07-20T04:14:29;99086.95;;;12.43;81.29
63691;BME280;49837;57.280;27.070;2023-07-20T04:15:30;99084.82;;;12.38;81.52
63691;BME280;49837;57.280;27.070;2023-07-20T04:16:30;99083.88;;;12.34;81.22
63691;BME280;49837;57.280;27.070;2023-07-20T04:17:30;99081.77;;;12.4;81.05
63691;BME280;49837;57.280;27.070;2023-07-20T04:18:31;99083.56;;;12.44;81.08
63691;BME280;49837;57.280;27.070;2023-07-20T04:19:31;99082.15;;;12.44;81.21
63691;BME280;49837;57.280;27.070;2023-07-20T04:20:32;99088.3;;;12.48;81.32
63691;BME280;49837;57.280;27.070;2023-07-20T04:21:32;99082.11;;;12.55;81.38
63691;BME280;49837;57.280;27.070;2023-07-20T04:22:33;99082.61;;;12.55;81.15
63691;BME280;49837;57.280;27.070;2023-07-20T04:23:33;99085.23;;;12.54;81.29
63691;BME280;49837;57.280;27.070;2023-07-20T04:24:34;99086.73;;;12.61;81.47
63691;BME280;49837;57.280;27.070;2023-07-20T04:25:34;99086.19;;;12.7;81.14
63691;BME280;49837;57.280;27.070;2023-07-20T04:26:35;99082.04;;;12.67;80.73
63691;BME280;49837;57.280;27.070;2023-07-20T04:27:35;99091.03;;;12.65;80.98
63691;BME280;49837;57.280;27.070;2023-07-20T04:28:35;99092.92;;;12.76;81.2
63691;BME280;49837;57.280;27.070;2023-07-20T04:29:36;99089.36;;;12.75;80.83
63691;BME280;49837;57.280;27.070;2023-07-20T04:30:37;99090.19;;;12.77;81.01
63691;BME280;49837;57.280;27.070;2023-07-20T04:31:37;99088.07;;;12.77;80.79
63691;BME280;49837;57.280;27.070;2023-07-20T04:32:38;99090.52;;;12.85;81.13
63691;BME280;49837;57.280;27.070;2023-07-20T04:33:37;99088.91;;;12.94;80.85
63691;BME280;49837;57.280;27.070;2023-07-20T04:34:38;99090.06;;;12.93;80.66
63691;BME280;49837;57.280;27.070;2023-07-20T04:35:51;99092.45;;;12.96;80.91
63691;BME280;49837;57.280;27.070;2023-07-20T04:36:39;99091.28;;;13.01;81.13
63691;BME280;49837;57.280;27.070;2023-07-20T04:37:40;99092.06;;;13.02;80.56
63691;BME280;49837;57.280;27.070;2023-07-20T04:38:40;99089.23;;;12.94;80.34
63691;BME280;49837;57.280;27.070;2023-07-20T04:39:41;99089.45;;;12.93;80.4
63691;BME280;49837;57.280;27.070;2023-07-20T04:40:41;99086.49;;;12.91;80.47
63691;BME280;49837;57.280;27.070;2023-07-20T04:41:41;99090.23;;;12.93;80.52
63691;BME280;49837;57.280;27.070;2023-07-20T04:42:42;99086.11;;;12.96;80.59
63691;BME280;49837;57.280;27.070;2023-07-20T04:43:43;99085.31;;;12.94;80.59
63691;BME280;49837;57.280;27.070;2023-07-20T04:44:43;99084.6;;;12.94;80.73
63691;BME280;49837;57.280;27.070;2023-07-20T04:45:43;99081.61;;;13.08;80.95
63691;BME280;49837;57.280;27.070;2023-07-20T04:46:44;99084.94;;;13.18;80.59
63691;BME280;49837;57.280;27.070;2023-07-20T04:47:44;99084.2;;;13.25;80.06
63691;BME280;49837;57.280;27.070;2023-07-20T04:48:44;99086.88;;;13.31;79.9
63691;BME280;49837;57.280;27.070;2023-07-20T04:49:45;99086.55;;;13.26;79.8
63691;BME280;49837;57.280;27.070;2023-07-20T04:50:45;99086.12;;;13.38;79.43
63691;BME280;49837;57.280;27.070;2023-07-20T04:51:46;99087.07;;;13.39;79.25
63691;BME280;49837;57.280;27.070;2023-07-20T04:52:46;99089.03;;;13.49;79.49
63691;BME280;49837;57.280;27.070;2023-07-20T04:53:47;99086.88;;;13.53;79.14
63691;BME280;49837;57.280;27.070;2023-07-20T04:54:47;99088.48;;;13.56;78.68
63691;BME280;49837;57.280;27.070;2023-07-20T04:55:49;99085.39;;;13.5;78.93
63691;BME280;49837;57.280;27.070;2023-07-20T04:56:48;99087.98;;;13.56;78.66
63691;BME280;49837;57.280;27.070;2023-07-20T04:57:48;99086.19;;;13.58;78.66
63691;BME280;49837;57.280;27.070;2023-07-20T04:58:49;99085.27;;;13.65;78.41
63691;BME280;49837;57.280;27.070;2023-07-20T04:59:49;99083.12;;;13.71;78.32
63691;BME280;49837;57.280;27.070;2023-07-20T05:00:50;99089.74;;;13.81;78.55
63691;BME280;49837;57.280;27.070;2023-07-20T05:01:50;99087.44;;;13.94;78.07
63691;BME280;49837;57.280;27.070;2023-07-20T05:02:51;99088.73;;;13.99;78.01
63691;BME280;49837;57.280;27.070;2023-07-20T05:03:51;99085.67;;;14.17;77.99
63691;BME280;49837;57.280;27.070;2023-07-20T05:04:51;99086.85;;;14.17;77.19
63691;BME280;49837;57.280;27.070;2023-07-20T05:05:52;99089.42;;;14.26;77.05
63691;BME280;49837;57.280;27.070;2023-07-20T05:06:52;99091.05;;;14.33;76.51
63691;BME280;49837;57.280;27.070;2023-07-20T05:07:53;99089.84;;;14.2;76.29
63691;BME280;49837;57.280;27.070;2023-07-20T05:08:53;99089.27;;;14.22;76.43
63691;BME280;49837;57.280;27.070;2023-07-20T05:09:54;99089.86;;;14.42;77.13
63691;BME280;49837;57.280;27.070;2023-07-20T05:10:54;99090.72;;;14.42;76.33
63691;BME280;49837;57.280;27.070;2023-07-20T05:11:55;99086.67;;;14.37;76.42
63691;BME280;49837;57.280;27.070;2023-07-20T05:12:55;99090.38;;;14.55;76.65
63691;BME280;49837;57.280;27.070;2023-07-20T05:13:56;99089.45;;;14.7;76.36
63691;BME280;49837;57.280;27.070;2023-07-20T05:14:56;99091.53;;;14.67;76.13
63691;BME280;49837;57.280;27.070;2023-07-20T05:15:56;99091.41;;;14.53;75.61
63691;BME280;49837;57.280;27.070;2023-07-20T05:16:58;99091.81;;;14.51;75.82
63691;BME280;49837;57.280;27.070;2023-07-20T05:17:58;99095.82;;;14.62;76.07
63691;BME280;49837;57.280;27.070;2023-07-20T05:18:58;99095.07;;;14.59;75.7
63691;BME280;49837;57.280;27.070;2023-07-20T05:19:59;99094.38;;;14.52;75.88
63691;BME280;49837;57.280;27.070;2023-07-20T05:20:59;99094.93;;;14.55;76.26
63691;BME280;49837;57.280;27.070;2023-07-20T05:22:00;99095.59;;;14.4;75.94
63691;BME280;49837;57.280;27.070;2023-07-20T05:23:01;99094.52;;;14.4;76.47
63691;BME280;49837;57.280;27.070;2023-07-20T05:24:01;99097.67;;;14.39;76.5
63691;BME280;49837;57.280;27.070;2023-07-20T05:25:01;99097.57;;;14.45;76.29
63691;BME280;49837;57.280;27.070;2023-07-20T05:26:02;99100.05;;;14.49;76.52
63691;BME280;49837;57.280;27.070;2023-07-20T05:27:02;99100.07;;;14.4;76.54
63691;BME280;49837;57.280;27.070;2023-07-20T05:28:03;99100.13;;;14.37;76.43
63691;BME280;49837;57.280;27.070;2023-07-20T05:29:03;99102.28;;;14.51;76.75
63691;BME280;49837;57.280;27.070;2023-07-20T05:30:05;99106.28;;;14.67;76.32
63691;BME280;49837;57.280;27.070;2023-07-20T05:31:04;99105.14;;;14.83;75.95
63691;BME280;49837;57.280;27.070;2023-07-20T05:32:05;99107.44;;;14.64;75.71
63691;BME280;49837;57.280;27.070;2023-07-20T05:33:05;99102.52;;;14.73;75.72
63691;BME280;49837;57.280;27.070;2023-07-20T05:34:05;99103.31;;;14.6;76.35
63691;BME280;49837;57.280;27.070;2023-07-20T05:35:07;99101.57;;;14.63;76.17